Time;durP1;ratioP1;P1;durP2;ratioP2;P2;SDS_P1;SDS_P2;PMS_P1;PMS_P2;Temp;Humidity;BMP_temperature;BMP_pressure;BME280_temperature;BME280_humidity;BME280_pressure;Samples;Min_cycle;Max_cycle;Signal;HPM_P1;HPM_P2
2022/03/03 00:01:21;;;;;;;73.10;37.47;;;;;;;0.33;82.53;102474.81;5032397;28;20218;-73
2022/03/03 00:03:47;;;;;;;71.90;35.13;;;;;;;0.27;81.86;102479.31;5014739;28;20194;-72
2022/03/03 00:06:12;;;;;;;71.63;35.77;;;;;;;0.25;81.89;102478.31;5037697;28;20190;-73
2022/03/03 00:08:37;;;;;;;67.10;36.30;;;;;;;0.18;82.43;102483.53;5051971;28;20225;-73
2022/03/03 00:11:03;;;;;;;77.03;39.03;;;;;;;0.22;82.28;102474.66;5045473;28;20264;-73
2022/03/03 00:13:28;;;;;;;76.30;37.47;;;;;;;0.18;82.19;102474.38;5053752;28;20201;-72
2022/03/03 00:15:54;;;;;;;73.67;36.90;;;;;;;0.20;82.47;102474.50;5054870;28;20185;-73
2022/03/03 00:18:19;;;;;;;69.97;36.67;;;;;;;0.15;82.69;102468.19;5020968;28;20310;-73
2022/03/03 00:20:44;;;;;;;69.77;36.43;;;;;;;0.11;82.73;102462.00;5037321;28;20263;-72
2022/03/03 00:23:10;;;;;;;76.63;38.70;;;;;;;0.13;83.74;102473.84;5046384;28;20257;-73
2022/03/03 00:25:35;;;;;;;83.50;41.50;;;;;;;0.27;85.33;102474.28;5036939;28;20198;-73
2022/03/03 00:28:04;;;;;;;89.57;42.90;;;;;;;0.34;86.78;102472.41;5002727;28;20209;-72
2022/03/03 00:30:29;;;;;;;98.63;46.40;;;;;;;0.45;87.81;102478.38;5020282;28;20186;-72
2022/03/03 00:32:55;;;;;;;108.63;48.27;;;;;;;0.41;89.73;102485.53;5004089;28;20469;-72
2022/03/03 00:35:21;;;;;;;114.23;49.70;;;;;;;0.40;90.67;102489.69;5031765;28;20301;-71
2022/03/03 00:37:46;;;;;;;111.27;46.00;;;;;;;0.47;91.39;102494.50;5036913;28;20225;-72
2022/03/03 00:40:12;;;;;;;113.60;47.53;;;;;;;0.42;92.39;102498.28;5002450;28;20194;-73
2022/03/03 00:42:38;;;;;;;101.40;46.23;;;;;;;0.43;92.12;102512.63;5037668;28;20218;-73
2022/03/03 00:45:04;;;;;;;101.63;47.00;;;;;;;0.43;92.85;102505.06;5020836;28;20501;-72
2022/03/03 00:47:29;;;;;;;98.73;46.13;;;;;;;0.47;93.54;102487.81;5023018;28;20457;-73
2022/03/03 00:49:55;;;;;;;104.27;47.30;;;;;;;0.45;93.61;102480.88;5046132;28;20262;-71
2022/03/03 00:52:20;;;;;;;102.87;47.93;;;;;;;0.51;93.23;102486.47;5024407;28;20198;-73
2022/03/03 00:54:45;;;;;;;97.10;45.27;;;;;;;0.49;93.80;102492.13;5042264;28;20198;-70
2022/03/03 00:57:11;;;;;;;100.10;44.57;;;;;;;0.50;93.48;102493.88;5024864;28;20214;-71
2022/03/03 00:59:36;;;;;;;88.47;43.67;;;;;;;0.57;93.78;102499.56;5041734;28;20198;-73
2022/03/03 01:02:02;;;;;;;98.27;44.43;;;;;;;0.60;93.77;102499.84;5041602;28;20222;-70
2022/03/03 01:04:27;;;;;;;91.23;43.40;;;;;;;0.63;94.11;102492.53;5041832;28;20198;-72
2022/03/03 01:06:53;;;;;;;95.57;45.73;;;;;;;0.68;94.04;102500.50;5023615;28;20193;-73
2022/03/03 01:09:18;;;;;;;92.10;44.33;;;;;;;0.66;94.24;102489.38;5036419;28;20208;-71
2022/03/03 01:11:44;;;;;;;84.80;44.53;;;;;;;0.70;93.82;102483.84;5031679;28;20209;-72
2022/03/03 01:14:09;;;;;;;92.90;44.47;;;;;;;0.72;93.57;102477.31;5041147;28;20186;-73
2022/03/03 01:16:34;;;;;;;85.07;43.23;;;;;;;0.71;93.69;102475.53;5041439;28;20186;-72
2022/03/03 01:19:00;;;;;;;99.77;41.53;;;;;;;0.75;94.02;102473.41;5040951;28;20196;-72
2022/03/03 01:21:25;;;;;;;88.70;41.80;;;;;;;0.74;93.45;102469.13;5041912;28;20633;-72
2022/03/03 01:23:51;;;;;;;83.93;42.13;;;;;;;0.77;93.46;102464.34;5028939;28;20219;-72
2022/03/03 01:26:17;;;;;;;93.37;42.40;;;;;;;0.76;93.05;102456.63;5007115;28;20196;-71
2022/03/03 01:28:42;;;;;;;85.20;41.23;;;;;;;0.77;93.23;102458.44;5024035;28;20509;-73
2022/03/03 01:31:08;;;;;;;82.53;41.70;;;;;;;0.79;93.18;102461.94;5007779;28;20616;-72
2022/03/03 01:33:34;;;;;;;80.03;39.60;;;;;;;0.77;92.72;102458.44;5023029;28;20198;-73
2022/03/03 01:35:59;;;;;;;78.03;38.37;;;;;;;0.81;92.85;102460.41;5031801;28;20241;-73
2022/03/03 01:38:24;;;;;;;79.00;39.63;;;;;;;0.81;92.28;102458.78;5023829;28;20187;-72
2022/03/03 01:40:50;;;;;;;85.20;39.67;;;;;;;0.85;92.97;102465.88;5041288;28;20218;-71
2022/03/03 01:43:15;;;;;;;79.73;38.77;;;;;;;0.69;92.86;102456.91;5023287;28;20214;-73
2022/03/03 01:45:40;;;;;;;84.27;38.73;;;;;;;0.75;93.30;102453.25;5023197;28;20193;-71
2022/03/03 01:48:06;;;;;;;77.37;37.77;;;;;;;0.85;92.72;102445.69;5023441;28;20190;-72
2022/03/03 01:50:31;;;;;;;79.37;38.90;;;;;;;0.83;92.53;102449.72;5023896;28;20183;-72
2022/03/03 01:52:57;;;;;;;74.37;37.30;;;;;;;0.84;92.75;102448.09;5036974;28;20210;-72
2022/03/03 01:55:22;;;;;;;76.27;37.17;;;;;;;0.81;92.83;102458.78;5019939;28;20708;-73
2022/03/03 01:57:51;;;;;;;89.43;40.07;;;;;;;0.83;93.03;102461.44;5019166;28;20209;-73
2022/03/03 02:00:17;;;;;;;80.47;39.00;;;;;;;0.90;92.70;102453.63;5033601;28;20238;-73
2022/03/03 02:02:43;;;;;;;77.40;37.47;;;;;;;0.87;92.14;102456.78;5035099;28;20218;-73
2022/03/03 02:05:09;;;;;;;79.80;37.70;;;;;;;0.90;92.06;102458.66;5018616;28;20463;-73
2022/03/03 02:07:35;;;;;;;77.90;37.87;;;;;;;0.89;92.06;102457.81;5036448;28;20190;-72
2022/03/03 02:10:01;;;;;;;78.30;38.00;;;;;;;0.85;92.02;102452.38;5037972;28;20186;-73
2022/03/03 02:12:27;;;;;;;74.00;36.30;;;;;;;0.89;92.25;102444.31;5043708;28;20448;-73
2022/03/03 02:14:52;;;;;;;79.50;37.57;;;;;;;0.83;92.01;102443.81;5032285;28;20498;-73
2022/03/03 02:17:18;;;;;;;80.23;38.47;;;;;;;0.87;92.55;102444.16;5059739;28;20188;-72
2022/03/03 02:19:44;;;;;;;76.83;37.20;;;;;;;0.86;92.21;102452.50;5042838;28;20247;-73
2022/03/03 02:22:09;;;;;;;79.83;37.07;;;;;;;0.83;91.96;102448.84;5059458;28;20222;-73
2022/03/03 02:24:36;;;;;;;82.50;38.20;;;;;;;0.86;91.84;102446.59;5041181;28;20439;-73
2022/03/03 02:27:03;;;;;;;79.03;37.60;;;;;;;0.85;92.43;102437.25;5043188;28;20697;-73
2022/03/03 02:29:29;;;;;;;88.70;39.67;;;;;;;0.78;92.92;102437.50;5062909;28;20867;-72
2022/03/03 02:31:54;;;;;;;77.47;37.50;;;;;;;0.79;93.09;102439.25;5046110;28;20209;-71
2022/03/03 02:34:20;;;;;;;79.50;35.87;;;;;;;0.73;93.37;102442.13;5045207;28;20439;-72
2022/03/03 02:36:45;;;;;;;83.83;35.17;;;;;;;0.73;93.58;102434.59;5044537;28;20200;-71
2022/03/03 02:39:11;;;;;;;82.63;37.70;;;;;;;0.80;92.78;102420.84;5062597;28;20188;-72
2022/03/03 02:41:37;;;;;;;94.03;37.33;;;;;;;0.80;93.06;102425.91;5033288;28;20272;-73
2022/03/03 02:44:03;;;;;;;80.63;35.23;;;;;;;0.74;93.24;102430.44;5027601;28;20263;-73
2022/03/03 02:46:29;;;;;;;79.23;34.30;;;;;;;0.72;93.78;102431.97;5061584;28;20439;-73
2022/03/03 02:48:55;;;;;;;77.20;33.77;;;;;;;0.70;93.81;102426.78;5038645;28;20452;-73
2022/03/03 02:51:20;;;;;;;73.17;33.63;;;;;;;0.77;93.39;102435.75;5048047;28;20642;-72
2022/03/03 02:53:46;;;;;;;71.43;34.17;;;;;;;0.80;92.48;102435.97;5042447;28;20197;-72
2022/03/03 02:56:11;;;;;;;71.27;34.33;;;;;;;0.86;92.03;102429.81;5061614;28;20224;-73
2022/03/03 02:58:37;;;;;;;71.53;33.93;;;;;;;0.82;92.56;102417.72;5027585;28;20190;-72
2022/03/03 03:01:04;;;;;;;80.17;34.50;;;;;;;0.71;92.23;102412.53;5060266;28;20240;-73
2022/03/03 03:03:29;;;;;;;75.10;34.33;;;;;;;0.71;92.97;102415.94;5040446;28;20579;-72
2022/03/03 03:05:55;;;;;;;81.20;35.23;;;;;;;0.77;93.55;102413.06;5028796;28;20471;-72
2022/03/03 03:08:20;;;;;;;87.80;35.83;;;;;;;0.76;93.32;102404.59;5057068;28;20192;-73
2022/03/03 03:10:45;;;;;;;83.63;35.07;;;;;;;0.76;92.62;102412.16;5029860;28;20198;-72
2022/03/03 03:13:12;;;;;;;79.33;33.73;;;;;;;0.71;92.82;102415.06;5021061;28;20230;-73
2022/03/03 03:15:39;;;;;;;84.17;35.17;;;;;;;0.70;93.28;102409.16;5037271;28;20190;-71
2022/03/03 03:18:19;;;;;;;75.30;32.30;;;;;;;0.72;92.91;102417.69;5024579;28;20447;-72
2022/03/03 03:20:46;;;;;;;73.83;32.07;;;;;;;0.72;92.95;102426.91;5023511;28;20454;-70
2022/03/03 03:23:15;;;;;;;74.33;33.40;;;;;;;0.69;92.97;102422.47;5029646;28;20893;-73
2022/03/03 03:25:43;;;;;;;73.20;33.43;;;;;;;0.70;92.66;102419.22;5039707;28;20549;-70
2022/03/03 03:28:12;;;;;;;78.57;33.73;;;;;;;0.72;92.58;102416.84;5025031;28;20453;-71
2022/03/03 03:30:39;;;;;;;75.87;31.83;;;;;;;0.71;92.75;102408.38;5039565;28;20189;-73
2022/03/03 03:33:04;;;;;;;80.17;33.90;;;;;;;0.71;93.10;102421.00;5058121;28;20470;-72
2022/03/03 03:35:30;;;;;;;70.33;33.07;;;;;;;0.72;92.89;102424.41;5040934;28;20464;-72
2022/03/03 03:37:55;;;;;;;61.97;29.83;;;;;;;0.67;91.91;102421.47;5042013;28;20274;-73
2022/03/03 03:40:20;;;;;;;63.90;28.43;;;;;;;0.55;92.29;102417.91;5040099;28;20194;-72
2022/03/03 03:42:46;;;;;;;67.60;30.67;;;;;;;0.53;91.89;102409.38;5022736;28;20663;-72
2022/03/03 03:45:13;;;;;;;67.30;31.37;;;;;;;0.57;92.30;102413.03;5023209;28;20209;-72
2022/03/03 03:47:39;;;;;;;73.13;32.17;;;;;;;0.60;92.59;102403.22;5039012;28;20201;-73
2022/03/03 03:50:08;;;;;;;69.00;32.37;;;;;;;0.58;92.96;102400.56;5027063;28;21058;-72
2022/03/03 03:52:34;;;;;;;77.83;32.40;;;;;;;0.63;93.00;102399.31;5039911;28;20464;-72
2022/03/03 03:54:59;;;;;;;83.53;33.17;;;;;;;0.61;93.46;102394.88;5035836;28;20456;-73
2022/03/03 03:57:25;;;;;;;105.63;34.50;;;;;;;0.49;93.63;102389.72;5039607;28;20824;-73
2022/03/03 03:59:50;;;;;;;91.83;35.57;;;;;;;0.41;94.28;102385.66;5033113;28;20202;-73
2022/03/03 04:02:16;;;;;;;94.70;37.73;;;;;;;0.46;94.95;102375.97;5022395;28;20218;-72
2022/03/03 04:04:42;;;;;;;97.47;39.03;;;;;;;0.52;94.68;102381.53;5021756;28;20194;-73
2022/03/03 04:07:07;;;;;;;90.70;36.67;;;;;;;0.51;95.52;102394.88;5022340;28;20467;-72
2022/03/03 04:09:32;;;;;;;100.67;37.67;;;;;;;0.55;95.22;102390.22;5022724;28;20246;-72
2022/03/03 04:11:58;;;;;;;111.23;36.80;;;;;;;0.41;95.26;102388.19;5055283;28;20206;-71
2022/03/03 04:14:23;;;;;;;106.03;36.57;;;;;;;0.34;95.29;102391.81;5038890;28;20739;-72
2022/03/03 04:16:49;;;;;;;97.80;37.23;;;;;;;0.42;95.94;102384.94;5040683;28;20198;-72
2022/03/03 04:19:14;;;;;;;86.87;35.47;;;;;;;0.45;95.62;102390.19;5040635;28;20196;-70
2022/03/03 04:21:40;;;;;;;94.17;39.20;;;;;;;0.43;95.84;102396.75;5018695;28;20205;-72
2022/03/03 04:24:06;;;;;;;101.33;38.27;;;;;;;0.49;95.86;102386.31;5056368;28;20622;-73
2022/03/03 04:26:31;;;;;;;100.70;36.40;;;;;;;0.37;94.94;102376.09;5038444;28;20224;-73
2022/03/03 04:28:57;;;;;;;97.83;36.50;;;;;;;0.47;95.05;102388.72;5047682;28;20193;-71
2022/03/03 04:31:23;;;;;;;101.90;37.33;;;;;;;0.43;95.50;102380.75;5024871;28;20205;-71
2022/03/03 04:33:48;;;;;;;93.97;35.40;;;;;;;0.42;95.84;102381.50;5020966;28;20531;-72
2022/03/03 04:36:14;;;;;;;90.23;35.53;;;;;;;0.47;95.79;102383.66;5021812;28;20283;-72
2022/03/03 04:38:39;;;;;;;82.60;33.87;;;;;;;0.38;95.05;102375.34;5055202;28;20209;-71
2022/03/03 04:41:05;;;;;;;80.63;31.43;;;;;;;0.38;95.26;102376.22;5038490;28;20210;-71
2022/03/03 04:43:30;;;;;;;72.40;31.87;;;;;;;0.47;94.96;102365.16;5021212;28;20213;-73
2022/03/03 04:45:55;;;;;;;76.83;31.93;;;;;;;0.52;95.50;102376.47;5020608;28;20253;-73
2022/03/03 04:48:21;;;;;;;76.80;31.97;;;;;;;0.52;94.19;102373.97;5032571;28;20187;-72
2022/03/03 04:50:47;;;;;;;77.93;32.50;;;;;;;0.52;94.69;102372.34;5047460;28;20874;-73
2022/03/03 04:53:12;;;;;;;72.47;30.37;;;;;;;0.50;94.50;102380.53;5036124;28;20482;-72
2022/03/03 04:55:38;;;;;;;81.70;31.77;;;;;;;0.46;94.43;102384.41;5040269;28;20650;-72
2022/03/03 04:58:03;;;;;;;73.30;31.10;;;;;;;0.56;94.19;102401.19;5039835;28;20529;-73
2022/03/03 05:00:28;;;;;;;92.63;31.90;;;;;;;0.42;94.18;102386.56;5036720;28;20198;-72
2022/03/03 05:02:54;;;;;;;83.50;31.33;;;;;;;0.42;93.98;102367.28;5037954;28;20300;-72
2022/03/03 05:05:19;;;;;;;77.13;30.63;;;;;;;0.47;94.65;102375.22;5046124;28;20186;-72
2022/03/03 05:07:44;;;;;;;75.27;31.97;;;;;;;0.40;94.43;102368.78;5037109;28;20197;-73
2022/03/03 05:10:10;;;;;;;81.50;32.63;;;;;;;0.43;94.17;102361.50;5039218;28;20183;-73
2022/03/03 05:12:35;;;;;;;77.27;32.07;;;;;;;0.43;94.53;102356.47;5021610;28;20241;-72
2022/03/03 05:15:01;;;;;;;77.73;30.20;;;;;;;0.49;94.54;102351.06;5035261;28;20221;-73
2022/03/03 05:17:26;;;;;;;80.33;31.13;;;;;;;0.40;94.89;102348.63;5043584;28;20190;-72
2022/03/03 05:19:51;;;;;;;77.73;32.70;;;;;;;0.46;94.73;102345.75;5034129;28;20198;-72
2022/03/03 05:22:17;;;;;;;75.87;32.20;;;;;;;0.47;93.98;102341.72;5027155;28;20233;-73
2022/03/03 05:24:49;;;;;;;91.23;31.10;;;;;;;0.31;94.59;102340.31;5039665;28;20194;-71
2022/03/03 05:27:15;;;;;;;72.60;29.83;;;;;;;0.37;94.53;102335.81;5021480;28;20194;-72
2022/03/03 05:29:41;;;;;;;77.47;30.67;;;;;;;0.43;94.78;102331.28;5006492;28;20445;-71
2022/03/03 05:32:06;;;;;;;77.83;31.00;;;;;;;0.29;94.28;102326.72;5038191;28;20252;-72
2022/03/03 05:34:33;;;;;;;86.40;30.63;;;;;;;0.42;95.11;102331.13;5038576;28;20587;-73
2022/03/03 05:37:00;;;;;;;101.40;33.77;;;;;;;0.42;94.52;102319.44;5021210;28;20190;-73
2022/03/03 05:39:27;;;;;;;85.83;32.70;;;;;;;0.44;94.65;102330.50;5038879;28;20449;-71
2022/03/03 05:41:55;;;;;;;116.43;35.67;;;;;;;0.40;95.04;102327.63;5039434;28;20488;-73
2022/03/03 05:44:21;;;;;;;127.50;35.60;;;;;;;0.21;95.00;102332.75;5022015;28;20521;-72
2022/03/03 05:46:47;;;;;;;84.70;32.47;;;;;;;0.28;95.51;102324.97;5045517;28;20530;-73
2022/03/03 05:49:12;;;;;;;139.13;35.93;;;;;;;0.09;95.68;102321.63;5047199;28;20587;-72
2022/03/03 05:51:38;;;;;;;88.87;31.97;;;;;;;0.22;95.54;102324.44;5030375;28;20197;-72
2022/03/03 05:54:04;;;;;;;96.83;32.73;;;;;;;0.29;96.22;102316.66;5028361;28;20193;-72
2022/03/03 05:56:38;;;;;;;87.30;33.07;;;;;;;0.28;95.73;102314.00;5034786;28;20225;-73
2022/03/03 05:59:06;;;;;;;128.43;34.97;;;;;;;0.18;95.96;102324.94;5060815;28;20519;-72
2022/03/03 06:01:35;;;;;;;88.40;33.40;;;;;;;0.27;96.32;102338.28;5024254;28;20476;-72
2022/03/03 06:04:01;;;;;;;86.40;32.10;;;;;;;0.27;96.27;102344.97;5051020;28;20440;-72
2022/03/03 06:06:28;;;;;;;111.40;34.97;;;;;;;0.28;96.08;102340.06;5030804;28;20451;-72
2022/03/03 06:09:04;;;;;;;105.80;34.20;;;;;;;0.26;96.00;102348.25;5053415;28;20179;-72
2022/03/03 06:11:30;;;;;;;93.57;32.87;;;;;;;0.28;96.60;102353.53;5043825;28;20451;-72
2022/03/03 06:14:08;;;;;;;114.73;33.77;;;;;;;0.29;96.78;102364.50;5034681;28;20441;-71
2022/03/03 06:16:35;;;;;;;128.57;34.37;;;;;;;0.20;96.56;102366.25;5024477;28;20756;-72
2022/03/03 06:19:02;;;;;;;120.77;41.20;;;;;;;0.19;97.24;102387.16;5058912;28;20509;-72
2022/03/03 06:21:27;;;;;;;158.83;49.10;;;;;;;0.18;96.61;102391.28;5043830;28;20805;-73
2022/03/03 06:23:52;;;;;;;100.30;36.53;;;;;;;0.09;96.84;102395.53;5045985;28;20463;-71
2022/03/03 06:26:20;;;;;;;96.27;33.70;;;;;;;0.09;97.05;102397.16;5042100;28;20190;-73
2022/03/03 06:28:46;;;;;;;98.00;36.63;;;;;;;0.11;97.64;102400.72;5041812;28;20581;-72
2022/03/03 06:31:12;;;;;;;84.70;30.83;;;;;;;0.14;96.74;102403.50;5058534;28;20499;-72
2022/03/03 06:33:38;;;;;;;72.20;29.40;;;;;;;0.17;96.91;102409.66;5044227;28;20510;-72
2022/03/03 06:36:04;;;;;;;81.30;29.17;;;;;;;0.17;96.80;102401.22;5044153;28;20432;-72
2022/03/03 06:38:30;;;;;;;75.07;27.30;;;;;;;0.18;96.11;102382.84;5044291;28;20200;-73
2022/03/03 06:40:57;;;;;;;75.33;27.07;;;;;;;0.11;96.58;102385.59;5043029;28;20440;-72
2022/03/03 06:43:24;;;;;;;61.70;26.47;;;;;;;0.17;96.39;102381.06;5061354;28;20217;-73
2022/03/03 06:45:49;;;;;;;70.00;26.07;;;;;;;0.22;96.09;102386.53;5062153;28;20443;-71
2022/03/03 06:48:15;;;;;;;63.93;26.40;;;;;;;0.29;95.91;102390.53;5043533;28;20455;-73
2022/03/03 06:50:42;;;;;;;84.07;27.47;;;;;;;0.27;95.30;102383.63;5041033;28;20232;-72
2022/03/03 06:53:08;;;;;;;68.43;25.73;;;;;;;0.15;95.73;102393.53;5045440;28;20220;-71
2022/03/03 06:55:34;;;;;;;58.67;24.50;;;;;;;0.20;95.80;102402.34;5024090;28;20449;-72
2022/03/03 06:58:00;;;;;;;49.50;22.63;;;;;;;0.33;96.40;102415.25;5023467;28;20949;-73
2022/03/03 07:00:33;;;;;;;51.07;22.27;;;;;;;0.23;95.98;102414.31;5041554;28;20285;-72
2022/03/03 07:03:04;;;;;;;57.97;21.80;;;;;;;0.15;95.67;102416.19;5023663;28;20218;-72
2022/03/03 07:05:31;;;;;;;51.97;21.50;;;;;;;0.17;95.29;102423.88;5041351;28;20418;-71
2022/03/03 07:07:57;;;;;;;48.37;21.80;;;;;;;0.16;95.45;102424.63;5041441;28;20528;-71
2022/03/03 07:10:24;;;;;;;54.53;21.30;;;;;;;0.07;95.34;102426.38;5018888;28;20249;-71
2022/03/03 07:12:54;;;;;;;46.23;19.80;;;;;;;0.18;95.73;102426.53;5023082;28;20497;-73
2022/03/03 07:15:21;;;;;;;51.20;21.13;;;;;;;0.27;95.24;102425.56;5031821;28;20448;-72
2022/03/03 07:17:53;;;;;;;44.97;20.13;;;;;;;0.31;94.68;102417.50;5033476;28;20441;-71
2022/03/03 07:20:26;;;;;;;47.70;21.20;;;;;;;0.28;95.27;102420.66;5022977;28;20429;-72
2022/03/03 07:23:07;;;;;;;48.37;23.33;;;;;;;0.23;94.95;102427.81;5042210;28;20500;-73
2022/03/03 07:25:43;;;;;;;45.03;22.63;;;;;;;0.32;95.27;102424.31;5039514;28;20526;-73
2022/03/03 07:28:10;;;;;;;36.17;17.60;;;;;;;0.41;94.75;102420.91;5029830;28;20444;-72
2022/03/03 07:30:49;;;;;;;38.10;18.30;;;;;;;0.47;94.74;102418.03;5039398;28;20453;-72
2022/03/03 07:33:35;;;;;;;38.10;17.63;;;;;;;0.41;94.77;102420.06;5039707;28;20479;-72
2022/03/03 07:36:02;;;;;;;32.97;18.13;;;;;;;0.53;94.16;102424.47;5039605;28;20593;-71
2022/03/03 07:38:34;;;;;;;31.47;16.60;;;;;;;0.57;93.51;102424.84;5038980;28;20527;-72
2022/03/03 07:41:01;;;;;;;32.73;16.10;;;;;;;0.63;93.58;102424.50;5040239;28;20433;-73
2022/03/03 07:43:27;;;;;;;32.67;16.40;;;;;;;0.63;92.66;102424.50;5007440;28;20555;-71
2022/03/03 07:45:52;;;;;;;31.93;15.97;;;;;;;0.58;93.12;102425.75;5027811;28;20496;-72
2022/03/03 07:48:22;;;;;;;29.87;15.43;;;;;;;0.66;92.51;102418.81;5040803;28;20178;-73
2022/03/03 07:50:48;;;;;;;29.03;15.20;;;;;;;0.52;92.23;102431.16;5018906;28;20202;-72
2022/03/03 07:53:14;;;;;;;28.57;16.07;;;;;;;0.71;92.42;102428.53;5044935;28;20463;-70
2022/03/03 07:55:47;;;;;;;27.67;14.70;;;;;;;0.79;91.59;102424.13;5059523;28;20186;-72
2022/03/03 07:58:19;;;;;;;25.00;14.53;;;;;;;0.84;91.69;102416.22;5030533;28;20258;-70
2022/03/03 08:00:48;;;;;;;37.67;21.07;;;;;;;0.95;91.36;102414.56;5023608;28;20512;-70
2022/03/03 08:03:19;;;;;;;29.43;15.53;;;;;;;0.95;91.30;102412.94;5049266;28;20527;-72
2022/03/03 08:05:48;;;;;;;31.77;16.10;;;;;;;0.98;91.43;102408.16;5023405;28;20453;-73
2022/03/03 08:08:16;;;;;;;40.13;20.37;;;;;;;1.00;92.24;102405.75;5030170;28;20952;-73
2022/03/03 08:10:43;;;;;;;39.23;19.43;;;;;;;1.00;92.13;102404.09;5051978;28;20539;-73
2022/03/03 08:13:14;;;;;;;43.07;21.83;;;;;;;1.09;92.28;102407.38;5019105;28;20456;-72
2022/03/03 08:15:41;;;;;;;30.80;17.10;;;;;;;1.01;93.14;102410.91;5010673;28;20472;-72
2022/03/03 08:18:08;;;;;;;34.80;17.53;;;;;;;1.12;93.00;102414.31;5041612;28;20923;-71
2022/03/03 08:20:34;;;;;;;29.10;16.60;;;;;;;1.18;92.14;102405.59;5058030;28;20436;-71
2022/03/03 08:23:01;;;;;;;30.97;16.10;;;;;;;1.07;91.76;102408.00;5059429;28;20488;-70
2022/03/03 08:25:27;;;;;;;29.43;15.53;;;;;;;0.95;91.87;102410.41;5043904;28;20445;-73
2022/03/03 08:27:54;;;;;;;29.70;15.20;;;;;;;1.11;91.89;102415.06;5019451;28;20449;-72
2022/03/03 08:30:20;;;;;;;28.50;15.27;;;;;;;1.18;91.55;102414.78;5017960;28;20441;-73
2022/03/03 08:32:56;;;;;;;29.07;14.93;;;;;;;1.24;91.29;102411.13;5036029;28;20520;-72
2022/03/03 08:35:25;;;;;;;29.67;15.10;;;;;;;1.26;91.61;102423.88;5016224;28;20194;-72
2022/03/03 08:37:57;;;;;;;22.37;12.93;;;;;;;1.18;91.54;102423.25;5019400;28;20597;-72
2022/03/03 08:40:24;;;;;;;24.03;12.57;;;;;;;1.31;91.66;102415.94;5035286;28;20236;-71
2022/03/03 08:42:56;;;;;;;22.63;13.63;;;;;;;1.26;91.16;102427.28;5054798;28;20479;-72
2022/03/03 08:45:23;;;;;;;22.60;12.53;;;;;;;1.29;91.40;102426.66;5040310;28;20905;-71
2022/03/03 08:47:58;;;;;;;21.53;12.10;;;;;;;1.47;90.67;102431.53;5043291;28;20542;-71
2022/03/03 08:50:27;;;;;;;17.27;10.00;;;;;;;1.61;89.57;102422.56;5024096;28;20500;-72
2022/03/03 08:52:54;;;;;;;16.37;9.77;;;;;;;1.66;89.69;102423.81;5041961;28;20977;-72
2022/03/03 08:55:20;;;;;;;18.00;10.70;;;;;;;1.77;88.78;102411.28;5037146;28;20263;-71
2022/03/03 08:57:45;;;;;;;17.57;10.20;;;;;;;1.84;88.25;102413.50;5037122;28;20189;-72
2022/03/03 09:00:12;;;;;;;18.63;9.97;;;;;;;1.84;88.06;102417.69;5038982;28;20257;-73
2022/03/03 09:02:37;;;;;;;18.93;11.13;;;;;;;1.93;86.95;102416.75;5056818;28;20230;-73
2022/03/03 09:05:03;;;;;;;19.97;11.27;;;;;;;1.98;87.16;102405.38;5039184;28;20204;-73
2022/03/03 09:07:29;;;;;;;14.07;9.17;;;;;;;1.88;86.93;102415.53;5055794;28;20195;-71
2022/03/03 09:09:54;;;;;;;14.73;9.43;;;;;;;2.45;87.27;102414.09;5045202;28;20185;-72
2022/03/03 09:12:20;;;;;;;14.40;9.17;;;;;;;2.73;85.78;102401.16;5028249;28;21001;-76
2022/03/03 09:14:45;;;;;;;14.43;8.57;;;;;;;2.49;85.13;102406.88;5030591;28;20186;-75
2022/03/03 09:17:11;;;;;;;14.17;9.23;;;;;;;2.50;84.63;102403.59;5042117;28;20687;-74
2022/03/03 09:19:36;;;;;;;15.97;9.20;;;;;;;2.48;84.03;102409.31;5036537;28;20190;-75
2022/03/03 09:22:03;;;;;;;14.17;8.73;;;;;;;2.55;84.45;102397.25;5015618;28;20745;-74
2022/03/03 09:24:29;;;;;;;16.60;9.93;;;;;;;2.55;83.56;102396.34;5029368;28;20186;-75
2022/03/03 09:26:54;;;;;;;16.47;9.60;;;;;;;2.53;84.39;102390.31;5002559;28;20329;-74
2022/03/03 09:29:21;;;;;;;16.17;9.27;;;;;;;2.81;84.06;102387.41;4995596;28;20230;-74
2022/03/03 09:31:46;;;;;;;14.70;8.87;;;;;;;2.89;82.26;102388.88;5028925;28;20213;-74
2022/03/03 09:34:12;;;;;;;16.63;9.73;;;;;;;2.77;83.24;102387.09;5034423;28;20587;-76
2022/03/03 09:36:37;;;;;;;15.27;9.47;;;;;;;2.65;83.83;102393.75;5011758;28;20193;-75
2022/03/03 09:39:03;;;;;;;14.03;8.90;;;;;;;2.68;84.51;102407.53;5029449;28;20631;-75
2022/03/03 09:41:29;;;;;;;16.30;9.73;;;;;;;2.61;84.47;102407.81;5028969;28;20760;-75
2022/03/03 09:43:56;;;;;;;16.87;9.83;;;;;;;2.61;84.65;102407.81;5012017;28;20228;-74
2022/03/03 09:46:22;;;;;;;15.90;9.57;;;;;;;2.75;84.98;102411.41;5012898;28;20224;-74
2022/03/03 09:48:47;;;;;;;18.53;11.77;;;;;;;2.80;84.69;102402.50;5029510;28;20194;-74
2022/03/03 09:51:13;;;;;;;18.40;11.17;;;;;;;2.61;84.35;102411.97;5036877;28;20193;-75
2022/03/03 09:53:39;;;;;;;15.30;9.53;;;;;;;2.78;84.89;102409.97;5049282;28;20206;-75
2022/03/03 09:56:05;;;;;;;15.33;9.40;;;;;;;2.83;85.29;102411.19;5049034;28;20205;-76
2022/03/03 09:58:30;;;;;;;18.00;11.93;;;;;;;2.88;85.54;102417.47;5048929;28;20178;-74
2022/03/03 10:00:56;;;;;;;20.20;11.17;;;;;;;2.83;84.78;102412.81;5048635;28;20548;-75
2022/03/03 10:03:21;;;;;;;18.00;10.50;;;;;;;2.80;85.18;102427.78;5049670;28;20209;-76
2022/03/03 10:05:49;;;;;;;19.63;10.40;;;;;;;2.77;85.66;102425.03;5049543;28;20186;-76
2022/03/03 10:08:20;;;;;;;21.77;11.83;;;;;;;2.94;85.79;102406.94;5014374;28;20181;-76
2022/03/03 10:10:51;;;;;;;22.03;11.90;;;;;;;2.98;85.30;102413.97;5038387;28;20198;-73
2022/03/03 10:13:18;;;;;;;17.80;9.83;;;;;;;2.85;86.24;102414.69;5050493;28;20210;-74
2022/03/03 10:15:45;;;;;;;18.73;10.70;;;;;;;2.89;85.83;102409.13;5035513;28;20194;-75
2022/03/03 10:18:13;;;;;;;18.07;9.67;;;;;;;3.01;85.76;102417.63;5043772;28;20233;-72
2022/03/03 10:20:44;;;;;;;20.63;11.03;;;;;;;3.05;85.85;102422.16;5037150;28;20673;-75
2022/03/03 10:23:10;;;;;;;18.90;10.40;;;;;;;3.03;85.99;102410.16;5032543;28;20689;-74
2022/03/03 10:25:39;;;;;;;18.20;10.13;;;;;;;2.92;86.35;102423.63;5034759;28;20198;-72
2022/03/03 10:28:19;;;;;;;19.37;9.63;;;;;;;3.04;86.25;102432.16;5034601;28;20629;-75
2022/03/03 10:31:13;;;;;;;18.37;8.90;;;;;;;3.06;86.67;102433.13;5032844;28;20222;-74
2022/03/03 10:33:41;;;;;;;19.63;9.10;;;;;;;3.09;86.21;102423.25;5030988;28;20219;-74
2022/03/03 10:36:23;;;;;;;17.97;9.70;;;;;;;3.26;86.14;102421.19;5015699;28;20186;-74
2022/03/03 10:38:56;;;;;;;17.07;8.53;;;;;;;3.22;85.81;102423.41;5032825;28;20195;-74
2022/03/03 10:41:42;;;;;;;15.30;8.17;;;;;;;3.20;85.81;102415.69;5018727;28;20300;-73
2022/03/03 10:44:13;;;;;;;17.77;8.33;;;;;;;3.44;85.16;102412.41;5016841;28;20190;-74
2022/03/03 10:47:07;;;;;;;14.77;7.87;;;;;;;3.42;85.42;102416.50;5032513;28;20189;-74
2022/03/03 10:49:34;;;;;;;14.00;7.80;;;;;;;3.41;85.66;102418.91;5024577;28;20593;-73
2022/03/03 10:52:16;;;;;;;15.53;8.10;;;;;;;3.49;84.57;102415.28;5031986;28;20222;-72
2022/03/03 10:54:58;;;;;;;13.53;7.50;;;;;;;3.49;84.62;102421.22;5032619;28;20186;-74
2022/03/03 10:57:32;;;;;;;12.43;7.23;;;;;;;3.51;84.41;102411.19;5014827;28;20191;-74
2022/03/03 10:59:59;;;;;;;12.17;7.17;;;;;;;3.55;83.75;102413.19;5032302;28;20227;-75
2022/03/03 11:02:29;;;;;;;12.30;6.57;;;;;;;3.59;84.07;102416.03;4998121;28;20304;-74
2022/03/03 11:04:56;;;;;;;12.23;7.27;;;;;;;3.51;84.00;102421.34;5032692;28;20248;-74
2022/03/03 11:07:23;;;;;;;8.37;5.90;;;;;;;3.57;83.25;102402.41;5034559;28;20182;-74
2022/03/03 11:09:49;;;;;;;12.00;7.47;;;;;;;3.72;83.17;102410.22;5037522;28;20653;-73
2022/03/03 11:12:15;;;;;;;11.53;6.60;;;;;;;3.70;83.85;102411.75;5039371;28;20241;-73
2022/03/03 11:14:42;;;;;;;10.70;6.60;;;;;;;3.64;83.98;102407.13;5033428;28;20628;-73
2022/03/03 11:17:07;;;;;;;11.60;5.97;;;;;;;3.85;83.12;102421.31;5034112;28;20193;-73